Time;durP1;ratioP1;P1;durP2;ratioP2;P2;SDS_P1;SDS_P2;PMS_P1;PMS_P2;Temp;Humidity;BMP_temperature;BMP_pressure;BME280_temperature;BME280_humidity;BME280_pressure;Samples;Min_cycle;Max_cycle;Signal;HPM_P1;HPM_P2
2021/04/01 00:00:59;;;;;;;;;;;;;;;9.74;97.35;99686.63;1695053;83;20165;-68
2021/04/01 00:03:28;;;;;;;;;;;;;;;9.67;97.39;99683.70;1742364;82;20450;-68
2021/04/01 00:05:56;;;;;;;;;;;;;;;9.61;97.54;99684.28;1739339;82;20144;-68
2021/04/01 00:08:23;;;;;;;;;;;;;;;9.59;97.91;99676.99;1726968;83;20144;-68
2021/04/01 00:10:53;;;;;;;;;;;;;;;9.57;98.32;99671.84;1725029;83;20148;-68
2021/04/01 00:13:21;;;;;;;;;;;;;;;9.55;98.94;99676.94;1693007;84;20241;-68
2021/04/01 00:15:48;;;;;;;;;;;;;;;9.50;99.20;99669.42;1667474;85;20155;-68
2021/04/01 00:18:16;;;;;;;;;;;;;;;9.46;99.34;99665.41;1665917;84;20429;-68
2021/04/01 00:20:45;;;;;;;;;;;;;;;9.43;99.60;99665.22;1717261;82;20235;-68
2021/04/01 00:23:14;;;;;;;;;;;;;;;9.42;99.92;99658.75;1733008;82;20152;-68
2021/04/01 00:25:42;;;;;;;;;;;;;;;9.42;100.00;99658.75;1718757;83;20140;-68
2021/04/01 00:28:10;;;;;;;;;;;;;;;9.42;100.00;99651.66;1693494;84;20167;-68
2021/04/01 00:30:37;;;;;;;;;;;;;;;9.40;100.00;99648.82;1693741;85;20443;-68
2021/04/01 00:33:05;;;;;;;;;;;;;;;9.39;100.00;99646.68;1693408;85;20143;-68
2021/04/01 00:35:33;;;;;;;;;;;;;;;9.38;100.00;99645.00;1747251;81;20501;-68
2021/04/01 00:38:02;;;;;;;;;;;;;;;9.37;100.00;99647.31;1741234;82;20167;-68
2021/04/01 00:40:30;;;;;;;;;;;;;;;9.40;100.00;99644.86;1731253;82;20229;-68
2021/04/01 00:42:57;;;;;;;;;;;;;;;9.39;100.00;99640.08;1727074;83;20144;-68
2021/04/01 00:45:24;;;;;;;;;;;;;;;9.38;100.00;99636.26;1742026;82;20243;-68
2021/04/01 00:47:53;;;;;;;;;;;;;;;9.34;100.00;99633.06;1747408;82;20453;-68
2021/04/01 00:50:26;;;;;;;;;;;;;;;9.30;100.00;99626.41;1733667;82;20412;-68
2021/04/01 00:52:56;;;;;;;;;;;;;;;9.25;100.00;99631.27;1738328;82;20156;-68
2021/04/01 00:55:24;;;;;;;;;;;;;;;9.19;100.00;99630.52;1721889;83;20176;-68
2021/04/01 00:57:54;;;;;;;;;;;;;;;9.13;100.00;99627.95;1725377;83;20171;-68
2021/04/01 01:00:25;;;;;;;;;;;;;;;9.07;100.00;99631.99;1721108;83;20148;-68
2021/04/01 01:02:51;;;;;;;;;;;;;;;9.00;100.00;99619.50;1690794;83;20143;-68
2021/04/01 01:05:19;;;;;;;;;;;;;;;8.93;100.00;99626.63;1667243;84;21125;-68
2021/04/01 01:07:47;;;;;;;;;;;;;;;8.88;100.00;99620.11;1693129;84;20294;-69
2021/04/01 01:10:18;;;;;;;;;;;;;;;8.82;100.00;99618.86;1692303;85;20147;-68
2021/04/01 01:12:45;;;;;;;;;;;;;;;8.83;100.00;99619.22;1693688;84;20415;-68
2021/04/01 01:15:14;;;;;;;;;;;;;;;8.85;100.00;99613.31;1692486;85;20131;-68
2021/04/01 01:17:42;;;;;;;;;;;;;;;8.86;100.00;99610.19;1720207;82;20476;-68
2021/04/01 01:20:10;;;;;;;;;;;;;;;8.86;100.00;99608.87;1748941;82;20146;-68
2021/04/01 01:22:40;;;;;;;;;;;;;;;8.85;100.00;99612.48;1724648;81;20269;-68
2021/04/01 01:25:09;;;;;;;;;;;;;;;8.82;100.00;99605.67;1715105;82;20150;-68
2021/04/01 01:27:37;;;;;;;;;;;;;;;8.82;100.00;99599.58;1711801;80;20138;-68
2021/04/01 01:30:08;;;;;;;;;;;;;;;8.83;100.00;99599.91;1732467;82;20154;-68
2021/04/01 01:32:37;;;;;;;;;;;;;;;8.80;100.00;99594.92;1743317;81;20145;-68
2021/04/01 01:35:17;;;;;;;;;;;;;;;8.77;100.00;99593.88;1738923;81;20234;-68
2021/04/01 01:37:50;;;;;;;;;;;;;;;8.74;100.00;99591.04;1738225;82;20161;-68
2021/04/01 01:40:20;;;;;;;;;;;;;;;8.70;100.00;99595.75;1746110;81;20140;-68
2021/04/01 01:42:49;;;;;;;;;;;;;;;8.72;100.00;99590.34;1733187;82;20154;-68
2021/04/01 01:45:17;;;;;;;;;;;;;;;8.74;100.00;99586.59;1737367;82;20143;-68
2021/04/01 01:47:45;;;;;;;;;;;;;;;8.74;100.00;99586.59;1743130;81;20408;-68
2021/04/01 01:50:14;;;;;;;;;;;;;;;8.76;100.00;99583.82;1733349;82;20151;-68
2021/04/01 01:52:42;;;;;;;;;;;;;;;8.74;100.00;99587.91;1745796;82;20482;-68
2021/04/01 01:55:11;;;;;;;;;;;;;;;8.71;100.00;99580.76;1743486;81;20233;-68
2021/04/01 01:57:39;;;;;;;;;;;;;;;8.69;100.00;99577.43;1748229;81;20591;-68
2021/04/01 02:00:10;;;;;;;;;;;;;;;8.68;100.00;99573.97;1746770;81;20239;-68
2021/04/01 02:02:37;;;;;;;;;;;;;;;8.67;100.00;99572.78;1720107;82;20142;-68
2021/04/01 02:05:06;;;;;;;;;;;;;;;8.63;100.00;99568.27;1737205;82;20154;-68
2021/04/01 02:07:35;;;;;;;;;;;;;;;8.61;100.00;99568.90;1737360;82;20247;-68
2021/04/01 02:10:06;;;;;;;;;;;;;;;8.60;100.00;99573.81;1741984;82;20134;-68
2021/04/01 02:12:34;;;;;;;;;;;;;;;8.62;100.00;99566.63;1736358;82;20152;-68
2021/04/01 02:15:02;;;;;;;;;;;;;;;8.65;100.00;99571.60;1747892;82;20193;-68
2021/04/01 02:17:30;;;;;;;;;;;;;;;8.68;100.00;99573.97;1740495;82;20152;-68
2021/04/01 02:19:58;;;;;;;;;;;;;;;8.69;100.00;99569.52;1730320;81;20225;-68
2021/04/01 02:22:26;;;;;;;;;;;;;;;8.67;100.00;99565.70;1732878;82;20151;-68
2021/04/01 02:24:54;;;;;;;;;;;;;;;8.69;100.00;99573.48;1717237;83;20142;-68
2021/04/01 02:27:23;;;;;;;;;;;;;;;8.72;100.00;99557.39;1743836;81;20146;-68
2021/04/01 02:29:50;;;;;;;;;;;;;;;8.74;100.00;99561.55;1745456;81;20146;-68
2021/04/01 02:32:17;;;;;;;;;;;;;;;8.77;100.00;99558.28;1738523;82;20417;-68
2021/04/01 02:34:47;;;;;;;;;;;;;;;8.79;100.00;99557.65;1734756;82;20154;-68
2021/04/01 02:37:15;;;;;;;;;;;;;;;8.81;100.00;99553.06;1740244;82;20250;-68
2021/04/01 02:39:44;;;;;;;;;;;;;;;8.89;100.00;99558.49;1732603;82;20144;-68
2021/04/01 02:42:12;;;;;;;;;;;;;;;8.92;100.00;99554.23;1722019;82;20179;-68
2021/04/01 02:44:39;;;;;;;;;;;;;;;8.93;100.00;99558.05;1742716;81;20217;-68
2021/04/01 02:47:07;;;;;;;;;;;;;;;8.95;100.00;99547.38;1740870;81;20271;-68
2021/04/01 02:49:35;;;;;;;;;;;;;;;8.97;100.00;99548.56;1752263;80;20127;-68
2021/04/01 02:52:03;;;;;;;;;;;;;;;9.03;100.00;99551.94;1723261;83;20164;-68
2021/04/01 02:54:31;;;;;;;;;;;;;;;9.08;100.00;99546.59;1734723;82;20150;-68
2021/04/01 02:56:59;;;;;;;;;;;;;;;9.09;100.00;99550.90;1714027;81;20438;-69
2021/04/01 02:59:27;;;;;;;;;;;;;;;9.10;100.00;99549.91;1739555;81;20239;-68
2021/04/01 03:01:54;;;;;;;;;;;;;;;9.09;100.00;99550.90;1735519;82;20413;-68
2021/04/01 03:04:23;;;;;;;;;;;;;;;9.07;100.00;99550.22;1730328;82;20183;-68
2021/04/01 03:06:50;;;;;;;;;;;;;;;9.05;100.00;99541.61;1716458;83;20153;-68
2021/04/01 03:09:18;;;;;;;;;;;;;;;9.08;100.00;99540.48;1736781;82;20267;-68
2021/04/01 03:11:45;;;;;;;;;;;;;;;9.08;100.00;99542.63;1716866;83;20128;-68
2021/04/01 03:14:13;;;;;;;;;;;;;;;9.07;100.00;99540.12;1740151;82;20167;-68
2021/04/01 03:16:40;;;;;;;;;;;;;;;9.06;100.00;99536.66;1726010;83;20128;-68
2021/04/01 03:19:08;;;;;;;;;;;;;;;9.05;100.00;99544.25;1693619;84;20154;-68
2021/04/01 03:21:36;;;;;;;;;;;;;;;9.04;100.00;99532.52;1737353;82;20514;-68
2021/04/01 03:24:06;;;;;;;;;;;;;;;9.06;99.86;99543.26;1745524;81;20130;-68
2021/04/01 03:26:34;;;;;;;;;;;;;;;9.11;99.69;99544.17;1749665;81;20144;-68
2021/04/01 03:29:02;;;;;;;;;;;;;;;9.12;99.58;99534.77;1718434;82;20130;-68
2021/04/01 03:31:29;;;;;;;;;;;;;;;9.15;99.36;99534.17;1734114;82;20160;-68
2021/04/01 03:33:57;;;;;;;;;;;;;;;9.15;99.18;99534.99;1743492;82;20126;-68
2021/04/01 03:36:25;;;;;;;;;;;;;;;9.16;99.00;99531.86;1746528;82;20130;-68
2021/04/01 03:38:54;;;;;;;;;;;;;;;9.16;98.90;99530.04;1740244;82;20148;-68
2021/04/01 03:41:22;;;;;;;;;;;;;;;9.20;98.66;99531.91;1722332;82;20235;-68
2021/04/01 03:43:50;;;;;;;;;;;;;;;9.24;98.29;99530.64;1738355;82;20175;-68
2021/04/01 03:46:17;;;;;;;;;;;;;;;9.25;98.00;99531.00;1715837;83;20301;-68
2021/04/01 03:48:44;;;;;;;;;;;;;;;9.23;97.79;99539.55;1732983;81;20140;-68
2021/04/01 03:51:13;;;;;;;;;;;;;;;9.20;97.75;99524.84;1726644;82;20132;-68
2021/04/01 03:53:40;;;;;;;;;;;;;;;9.16;97.66;99533.17;1710091;82;20140;-68
2021/04/01 03:56:08;;;;;;;;;;;;;;;9.11;97.85;99527.02;1736780;82;20269;-68
2021/04/01 04:12:11;;;;;;;;;;;;;;;8.89;98.88;99520.25;1742103;82;20410;-70
2021/04/01 04:14:32;;;;;;;;;;;;;;;8.88;98.86;99514.63;1744845;82;20136;-69
2021/04/01 04:16:56;;;;;;;;;;;;;;;8.91;99.03;99519.13;1747750;81;20433;-69
2021/04/01 04:19:23;;;;;;;;;;;;;;;8.90;99.13;99506.93;1719029;82;20134;-69
2021/04/01 04:21:51;;;;;;;;;;;;;;;8.91;99.18;99512.53;1740435;82;20129;-69
2021/04/01 04:24:18;;;;;;;;;;;;;;;8.92;99.15;99503.66;1732837;82;20407;-69
2021/04/01 04:26:46;;;;;;;;;;;;;;;8.94;98.96;99501.72;1732216;82;20140;-69
2021/04/01 04:29:13;;;;;;;;;;;;;;;8.98;98.72;99496.98;1721207;83;20149;-69
2021/04/01 04:31:42;;;;;;;;;;;;;;;9.06;98.34;99501.05;1747439;82;20284;-69
2021/04/01 04:34:10;;;;;;;;;;;;;;;9.14;98.07;99499.02;1733816;81;20148;-68
2021/04/01 04:36:37;;;;;;;;;;;;;;;9.19;97.70;99486.23;1728326;83;20160;-69
2021/04/01 04:39:05;;;;;;;;;;;;;;;9.27;97.16;99492.93;1740802;82;20172;-69
2021/04/01 04:41:33;;;;;;;;;;;;;;;9.37;96.35;99499.52;1710293;81;20242;-69
2021/04/01 04:44:01;;;;;;;;;;;;;;;9.46;95.58;99494.69;1721344;83;20138;-70
2021/04/01 04:46:29;;;;;;;;;;;;;;;9.61;94.80;99492.87;1711623;82;20132;-69
2021/04/01 04:48:56;;;;;;;;;;;;;;;9.76;93.78;99491.89;1716837;83;20231;-68
2021/04/01 04:51:24;;;;;;;;;;;;;;;9.90;92.79;99486.94;1747261;82;20168;-69
2021/04/01 04:53:53;;;;;;;;;;;;;;;10.05;91.57;99488.59;1748917;81;20134;-70
2021/04/01 04:56:24;;;;;;;;;;;;;;;10.23;89.71;99480.69;1740545;82;20422;-69
2021/04/01 04:59:03;;;;;;;;;;;;;;;10.37;88.61;99479.34;1718727;81;20247;-69
2021/04/01 05:06:56;;;;;;;;;;;;;;;11.13;83.17;99473.96;1747553;81;20163;-70
2021/04/01 05:09:22;;;;;;;;;;;;;;;11.42;81.31;99468.30;1738833;82;20159;-69
2021/04/01 05:11:49;;;;;;;;;;;;;;;11.69;79.62;99465.12;1732546;81;20156;-69
2021/04/01 05:14:17;;;;;;;;;;;;;;;11.95;78.03;99466.38;1740950;81;20182;-69
2021/04/01 05:16:45;;;;;;;;;;;;;;;12.25;75.95;99462.79;1728478;83;20172;-70
2021/04/01 05:19:15;;;;;;;;;;;;;;;12.53;73.83;99463.30;1755683;80;20332;-70
2021/04/01 05:21:51;;;;;;;;;;;;;;;12.81;72.39;99473.06;1724781;81;20232;-69
2021/04/01 05:24:17;;;;;;;;;;;;;;;13.16;71.03;99463.02;1748806;81;20492;-70
2021/04/01 05:29:32;;;;;;;;;;;;;;;13.92;67.16;99458.10;1733122;81;20148;-70
2021/04/01 05:31:59;;;;;;;;;;;;;;;14.35;63.26;99455.00;1716234;82;20152;-69
2021/04/01 05:34:28;;;;;;;;;;;;;;;14.66;63.35;99462.08;1748177;82;20154;-70
2021/04/01 05:36:57;;;;;;;;;;;;;;;15.01;61.90;99457.11;1737023;82;20152;-70
2021/04/01 05:39:29;;;;;;;;;;;;;;;15.37;59.94;99459.86;1740137;81;20136;-69
2021/04/01 05:41:58;;;;;;;;;;;;;;;15.65;58.40;99464.01;1731925;81;20525;-69
2021/04/01 05:47:10;;;;;;;;;;;;;;;16.39;56.75;99454.18;1733346;81;20191;-71
2021/04/01 05:50:06;;;;;;;;;;;;;;;16.96;55.03;99455.88;1732064;82;20144;-71
2021/04/01 06:04:02;;;;;;;;;;;;;;;18.88;47.46;99443.33;1732755;82;20152;-69
2021/04/01 06:06:33;;;;;;;;;;;;;;;19.07;46.88;99432.80;1727191;83;20164;-68
2021/04/01 06:09:02;;;;;;;;;;;;;;;19.40;46.15;99431.37;1740687;81;20155;-69
2021/04/01 06:11:30;;;;;;;;;;;;;;;19.56;45.64;99433.58;1710112;83;20215;-70
2021/04/01 06:16:38;;;;;;;;;;;;;;;19.46;45.75;99425.15;1744577;81;20154;-69
2021/04/01 06:19:10;;;;;;;;;;;;;;;19.52;45.36;99432.34;1746955;82;20132;-71
2021/04/01 06:21:41;;;;;;;;;;;;;;;19.61;44.98;99426.75;1735907;82;20151;-71
2021/04/01 06:24:26;;;;;;;;;;;;;;;19.75;45.19;99426.50;1723676;83;20143;-72
2021/04/01 06:27:09;;;;;;;;;;;;;;;19.93;43.96;99424.95;1722479;83;20238;-70
2021/04/01 06:29:31;;;;;;;;;;;;;;;20.09;43.67;99422.30;1749578;81;20173;-69
2021/04/01 06:32:04;;;;;;;;;;;;;;;20.42;43.31;99427.94;1742547;81;20418;-72
2021/04/01 06:34:37;;;;;;;;;;;;;;;20.79;41.72;99426.73;1745406;82;20418;-70
2021/04/01 06:37:19;;;;;;;;;;;;;;;20.97;41.76;99424.08;1747759;82;20242;-69
2021/04/01 06:39:51;;;;;;;;;;;;;;;21.28;40.90;99433.04;1741866;81;20131;-71
2021/04/01 06:42:23;;;;;;;;;;;;;;;21.51;40.04;99425.16;1747428;82;20150;-71
2021/04/01 06:44:53;;;;;;;;;;;;;;;21.80;39.85;99422.70;1736729;82;20146;-71
2021/04/01 06:47:23;;;;;;;;;;;;;;;22.08;38.96;99414.55;1740410;82;20417;-70
2021/04/01 06:50:04;;;;;;;;;;;;;;;22.38;38.24;99421.27;1737276;81;20182;-72
2021/04/01 06:52:34;;;;;;;;;;;;;;;22.59;37.94;99419.88;1757816;80;20543;-72
2021/04/01 06:55:12;;;;;;;;;;;;;;;22.95;37.35;99414.49;1722711;82;20430;-70
2021/04/01 07:03:17;;;;;;;;;;;;;;;23.91;35.23;99404.63;1726113;83;20247;-71
2021/04/01 07:08:39;;;;;;;;;;;;;;;24.45;34.67;99405.02;1715400;82;20277;-70
2021/04/01 07:11:05;;;;;;;;;;;;;;;24.94;33.77;99401.17;1733311;82;20145;-72
2021/04/01 07:13:46;;;;;;;;;;;;;;;25.27;33.10;99400.83;1741500;82;20405;-71
2021/04/01 07:17:05;;;;;;;;;;;;;;;25.74;32.33;99400.28;1751629;81;20146;-71
2021/04/01 07:19:21;;;;;;;;;;;;;;;26.24;31.59;99396.16;1695064;83;20288;-71
2021/04/01 07:46:30;;;;;;;;;;;;;;;27.91;27.97;99369.39;1739891;82;20423;-71
2021/04/01 07:48:58;;;;;;;;;;;;;;;28.00;28.40;99365.58;1741881;82;20194;-73
2021/04/01 07:54:11;;;;;;;;;;;;;;;28.99;26.91;99376.08;1737823;81;20235;-72
2021/04/01 07:56:48;;;;;;;;;;;;;;;29.21;26.38;99362.96;1736828;82;20174;-73
2021/04/01 08:02:24;;;;;;;;;;;;;;;29.14;26.25;99358.91;1715982;81;20147;-69
2021/04/01 08:04:42;;;;;;;;;;;;;;;29.21;26.32;99353.98;1737914;82;20163;-68
2021/04/01 08:07:12;;;;;;;;;;;;;;;29.24;25.84;99354.80;1742061;82;20156;-70
2021/04/01 08:09:42;;;;;;;;;;;;;;;28.88;26.30;99344.55;1731961;82;20163;-68
2021/04/01 08:12:26;;;;;;;;;;;;;;;28.74;26.79;99348.42;1718662;82;20156;-70
2021/04/01 08:15:03;;;;;;;;;;;;;;;28.64;26.24;99345.19;1751051;81;20146;-68
2021/04/01 08:17:42;;;;;;;;;;;;;;;28.26;27.38;99343.29;1726582;83;20399;-69
2021/04/01 08:20:03;;;;;;;;;;;;;;;28.40;27.25;99336.22;1693328;83;20142;-67
2021/04/01 08:22:32;;;;;;;;;;;;;;;28.61;26.90;99331.58;1723562;83;20184;-69
2021/04/01 08:25:06;;;;;;;;;;;;;;;28.99;26.66;99333.91;1736385;82;20235;-70
2021/04/01 08:27:50;;;;;;;;;;;;;;;29.51;25.96;99324.41;1733735;82;20235;-69
2021/04/01 08:33:13;;;;;;;;;;;;;;;30.05;25.08;99310.98;1737914;82;20402;-71
2021/04/01 08:35:37;;;;;;;;;;;;;;;30.27;24.69;99312.69;1730710;82;20132;-71
2021/04/01 08:38:14;;;;;;;;;;;;;;;30.22;24.78;99309.20;1737405;81;20433;-70
2021/04/01 08:40:44;;;;;;;;;;;;;;;30.29;24.68;99307.75;1732689;81;20419;-70
2021/04/01 08:43:36;;;;;;;;;;;;;;;30.35;24.45;99305.27;1731997;81;20416;-71
2021/04/01 08:46:21;;;;;;;;;;;;;;;30.33;24.46;99310.75;1732051;81;20142;-70
2021/04/01 08:49:13;;;;;;;;;;;;;;;29.95;24.53;99295.54;1741496;82;20221;-73
2021/04/01 08:52:08;;;;;;;;;;;;;;;29.76;24.89;99296.78;1728066;82;20156;-72
2021/04/01 08:54:52;;;;;;;;;;;;;;;29.59;25.18;99286.23;1751720;81;20413;-76
2021/04/01 08:57:23;;;;;;;;;;;;;;;29.14;25.71;99282.17;1715230;82;20169;-71
2021/04/01 08:59:57;;;;;;;;;;;;;;;28.95;25.90;99275.14;1731646;82;20177;-75
2021/04/01 09:02:26;;;;;;;;;;;;;;;29.02;25.83;99281.66;1758599;81;20217;-74
2021/04/01 09:04:56;;;;;;;;;;;;;;;28.95;25.75;99275.70;1759172;81;20205;-69
2021/04/01 09:07:41;;;;;;;;;;;;;;;28.79;26.16;99271.69;1716928;82;20182;-73
2021/04/01 09:10:20;;;;;;;;;;;;;;;28.71;26.38;99273.64;1696929;82;20132;-71
2021/04/01 09:12:54;;;;;;;;;;;;;;;28.68;26.28;99267.94;1718112;83;20456;-71
2021/04/01 09:15:32;;;;;;;;;;;;;;;28.55;26.40;99270.69;1700869;83;20168;-70
2021/04/01 09:17:53;;;;;;;;;;;;;;;28.55;26.49;99269.34;1731395;82;20159;-71
2021/04/01 09:20:22;;;;;;;;;;;;;;;28.56;26.39;99266.34;1741173;82;20229;-69
2021/04/01 09:22:55;;;;;;;;;;;;;;;28.44;26.38;99260.35;1700803;81;20236;-70
2021/04/01 09:25:38;;;;;;;;;;;;;;;28.30;26.37;99257.94;1722210;82;20145;-71
2021/04/01 09:28:08;;;;;;;;;;;;;;;28.31;26.71;99255.50;1745021;81;20151;-66
2021/04/01 09:30:36;;;;;;;;;;;;;;;28.51;26.30;99256.00;1732038;82;20419;-72
2021/04/01 09:33:15;;;;;;;;;;;;;;;28.65;26.24;99247.00;1736579;82;20142;-68
2021/04/01 09:35:44;;;;;;;;;;;;;;;28.81;26.00;99244.21;1688229;81;20494;-68
2021/04/01 09:38:12;;;;;;;;;;;;;;;28.87;26.20;99240.36;1733948;81;20161;-74
2021/04/01 09:40:43;;;;;;;;;;;;;;;28.98;25.82;99237.05;1728891;81;20130;-72
2021/04/01 09:43:18;;;;;;;;;;;;;;;29.07;25.41;99229.13;1732031;82;20152;-73
2021/04/01 09:45:47;;;;;;;;;;;;;;;29.11;25.22;99231.54;1730844;82;20244;-74
2021/04/01 09:48:16;;;;;;;;;;;;;;;28.78;25.57;99227.08;1736900;82;20129;-69
2021/04/01 09:50:45;;;;;;;;;;;;;;;28.57;25.78;99231.23;1731717;82;20130;-70
2021/04/01 09:53:18;;;;;;;;;;;;;;;28.49;26.15;99229.59;1745171;81;20159;-67
2021/04/01 09:55:48;;;;;;;;;;;;;;;28.64;25.30;99230.95;1692406;83;20238;-68
2021/04/01 09:58:25;;;;;;;;;;;;;;;28.89;25.15;99226.48;1712907;83;20235;-68
2021/04/01 10:03:32;;;;;;;;;;;;;;;29.53;24.84;99217.36;1718237;82;20152;-70
2021/04/01 10:06:00;;;;;;;;;;;;;;;29.76;24.08;99215.86;1724880;83;20447;-69
2021/04/01 10:08:31;;;;;;;;;;;;;;;29.96;23.14;99219.48;1697706;83;20211;-72
2021/04/01 10:11:05;;;;;;;;;;;;;;;30.03;22.84;99220.52;1720110;83;20152;-72
2021/04/01 10:13:32;;;;;;;;;;;;;;;30.01;22.25;99211.26;1724092;83;20180;-72
2021/04/01 10:16:01;;;;;;;;;;;;;;;29.72;22.52;99209.33;1745417;82;20250;-69
2021/04/01 10:18:34;;;;;;;;;;;;;;;29.62;22.69;99210.77;1744151;82;20140;-69
2021/04/01 10:21:06;;;;;;;;;;;;;;;29.72;23.04;99198.44;1706803;82;20155;-70
2021/04/01 10:23:44;;;;;;;;;;;;;;;29.89;23.04;99202.13;1729185;83;20412;-70
2021/04/01 10:26:13;;;;;;;;;;;;;;;29.65;22.87;99197.95;1722737;83;20440;-69
2021/04/01 10:28:45;;;;;;;;;;;;;;;29.15;23.26;99185.80;1690588;83;20161;-69
2021/04/01 10:31:17;;;;;;;;;;;;;;;28.93;23.69;99178.57;1722488;82;20266;-69
2021/04/01 10:34:05;;;;;;;;;;;;;;;29.00;23.94;99169.55;1733091;82;20518;-70
2021/04/01 10:36:38;;;;;;;;;;;;;;;29.56;23.67;99172.42;1742193;82;20150;-70
2021/04/01 10:39:10;;;;;;;;;;;;;;;30.08;23.12;99165.95;1739741;82;20231;-70
2021/04/01 10:41:52;;;;;;;;;;;;;;;30.16;21.99;99172.92;1713226;83;20137;-69
2021/04/01 10:44:21;;;;;;;;;;;;;;;29.72;22.47;99171.19;1722776;83;20148;-70
2021/04/01 10:46:53;;;;;;;;;;;;;;;29.10;21.52;99154.50;1726441;83;20234;-70
2021/04/01 10:49:30;;;;;;;;;;;;;;;28.58;21.98;99156.73;1726523;83;20132;-68
2021/04/01 10:52:02;;;;;;;;;;;;;;;28.13;22.16;99149.53;1725943;83;20163;-71
2021/04/01 10:54:44;;;;;;;;;;;;;;;27.50;22.40;99143.94;1716946;83;20165;-69
2021/04/01 10:57:13;;;;;;;;;;;;;;;26.79;23.05;99139.25;1723031;83;20132;-71
2021/04/01 10:59:49;;;;;;;;;;;;;;;26.36;23.71;99135.29;1725092;83;20124;-70
2021/04/01 11:02:19;;;;;;;;;;;;;;;26.29;24.04;99136.06;1723732;83;20228;-69
2021/04/01 11:04:51;;;;;;;;;;;;;;;26.14;24.61;99131.39;1694298;83;20318;-71
2021/04/01 11:07:18;;;;;;;;;;;;;;;25.81;24.80;99131.17;1741176;82;20444;-71
2021/04/01 11:09:48;;;;;;;;;;;;;;;25.26;24.91;99119.16;1747076;81;20142;-70
2021/04/01 11:12:20;;;;;;;;;;;;;;;24.95;25.16;99126.14;1740120;82;20134;-69
2021/04/01 11:14:53;;;;;;;;;;;;;;;24.84;25.48;99115.80;1738366;80;20142;-69
2021/04/01 11:17:23;;;;;;;;;;;;;;;24.92;25.54;99115.86;1744787;82;20398;-71
2021/04/01 11:19:54;;;;;;;;;;;;;;;25.03;25.80;99118.13;1710093;82;20149;-69
2021/04/01 11:22:22;;;;;;;;;;;;;;;25.08;25.01;99116.29;1747359;82;20492;-70
2021/04/01 11:24:49;;;;;;;;;;;;;;;24.99;25.19;99109.17;1723432;82;20130;-69
2021/04/01 11:27:19;;;;;;;;;;;;;;;24.80;26.02;99097.08;1744671;81;20205;-68
2021/04/01 11:29:58;;;;;;;;;;;;;;;24.58;26.36;99089.84;1749332;81;20141;-70
2021/04/01 11:32:31;;;;;;;;;;;;;;;24.47;26.97;99081.86;1759918;80;20141;-69
2021/04/01 11:35:00;;;;;;;;;;;;;;;24.45;26.54;99086.70;1745615;81;20132;-70
2021/04/01 11:37:33;;;;;;;;;;;;;;;24.44;26.38;99081.81;1731205;82;20412;-70
2021/04/01 11:40:06;;;;;;;;;;;;;;;24.45;26.38;99075.36;1733792;82;20139;-69
2021/04/01 11:42:35;;;;;;;;;;;;;;;24.45;26.37;99086.16;1736821;82;20214;-71
2021/04/01 11:45:05;;;;;;;;;;;;;;;24.34;27.04;99073.61;1740318;82;20167;-69
2021/04/01 11:47:35;;;;;;;;;;;;;;;24.22;27.12;99061.57;1735504;81;20440;-70
2021/04/01 11:50:05;;;;;;;;;;;;;;;24.20;27.06;99062.36;1717060;82;20210;-70
2021/04/01 11:52:32;;;;;;;;;;;;;;;24.03;27.32;99056.52;1730155;81;20615;-69
2021/04/01 11:55:08;;;;;;;;;;;;;;;23.91;28.08;99064.45;1749714;81;20147;-70
2021/04/01 11:57:35;;;;;;;;;;;;;;;23.84;28.25;99052.48;1738370;81;20248;-69
2021/04/01 12:00:13;;;;;;;;;;;;;;;23.79;28.70;99047.84;1731378;82;20184;-69
2021/04/01 12:03:01;;;;;;;;;;;;;;;23.80;28.96;99056.21;1740223;82;20295;-68
2021/04/01 12:05:25;;;;;;;;;;;;;;;23.82;28.78;99039.77;1741339;82;20164;-68
2021/04/01 12:07:53;;;;;;;;;;;;;;;23.82;28.78;99037.88;1716378;82;20195;-69
2021/04/01 12:10:22;;;;;;;;;;;;;;;23.88;28.93;99033.36;1725454;81;20408;-70
2021/04/01 12:12:53;;;;;;;;;;;;;;;23.81;29.30;99034.11;1740710;82;20166;-69
2021/04/01 12:15:30;;;;;;;;;;;;;;;23.74;29.41;99023.98;1738613;82;20251;-69
2021/04/01 12:17:58;;;;;;;;;;;;;;;23.72;28.98;99020.73;1742996;82;20206;-67
2021/04/01 12:20:27;;;;;;;;;;;;;;;23.62;29.07;99016.83;1737139;81;20269;-70
2021/04/01 12:22:55;;;;;;;;;;;;;;;23.60;29.35;99008.17;1745057;80;20150;-68
2021/04/01 12:25:24;;;;;;;;;;;;;;;23.68;29.35;99011.47;1732968;82;20172;-69
2021/04/01 12:27:54;;;;;;;;;;;;;;;23.75;29.31;99004.82;1732935;81;20395;-70
2021/04/01 12:30:26;;;;;;;;;;;;;;;23.91;29.09;99010.46;1722618;83;20239;-69
2021/04/01 12:32:56;;;;;;;;;;;;;;;23.97;28.00;98998.64;1697489;83;20187;-69
2021/04/01 12:35:23;;;;;;;;;;;;;;;23.81;27.30;98993.07;1734801;82;20164;-69
2021/04/01 12:37:56;;;;;;;;;;;;;;;23.60;27.64;99000.58;1710099;82;20131;-69
2021/04/01 12:40:25;;;;;;;;;;;;;;;23.33;28.36;98995.11;1734916;81;20323;-70
2021/04/01 12:42:52;;;;;;;;;;;;;;;22.96;28.61;98991.55;1706872;82;20156;-69
2021/04/01 12:45:22;;;;;;;;;;;;;;;22.55;29.31;98986.30;1745706;82;20134;-67
2021/04/01 12:47:55;;;;;;;;;;;;;;;22.18;29.93;98986.72;1722085;83;20148;-68
2021/04/01 12:50:29;;;;;;;;;;;;;;;21.90;30.45;98976.22;1719190;82;20144;-71
2021/04/01 12:52:56;;;;;;;;;;;;;;;21.81;30.78;98971.43;1753029;81;20153;-70
2021/04/01 12:55:35;;;;;;;;;;;;;;;21.93;31.08;98967.38;1748231;81;20152;-70
2021/04/01 12:57:59;;;;;;;;;;;;;;;22.00;31.12;98964.02;1747931;81;20423;-69
2021/04/01 13:00:35;;;;;;;;;;;;;;;21.99;30.41;98961.03;1724966;82;20163;-69
2021/04/01 13:02:58;;;;;;;;;;;;;;;21.87;30.67;98963.23;1689510;82;20162;-68
2021/04/01 13:05:26;;;;;;;;;;;;;;;21.76;30.31;98951.98;1714444;82;20414;-69
2021/04/01 13:08:22;;;;;;;;;;;;;;;21.63;30.58;98948.22;1725705;82;20174;-67
2021/04/01 13:10:42;;;;;;;;;;;;;;;21.48;30.70;98946.03;1728398;82;20170;-68
2021/04/01 13:13:10;;;;;;;;;;;;;;;21.38;31.04;98937.70;1732308;82;20146;-68
2021/04/01 13:15:40;;;;;;;;;;;;;;;21.40;31.37;98936.43;1741250;81;20152;-70
2021/04/01 13:18:10;;;;;;;;;;;;;;;21.41;30.79;98928.64;1743127;81;20422;-70
2021/04/01 13:20:38;;;;;;;;;;;;;;;21.45;30.65;98924.48;1721065;83;20337;-68
2021/04/01 13:23:23;;;;;;;;;;;;;;;21.47;29.99;98919.67;1734667;82;20152;-71
2021/04/01 13:25:38;;;;;;;;;;;;;;;21.38;30.13;98907.62;1730391;82;20233;-69
2021/04/01 13:28:06;;;;;;;;;;;;;;;21.26;30.81;98909.50;1741681;82;20237;-69
2021/04/01 13:30:35;;;;;;;;;;;;;;;21.19;31.02;98908.80;1712884;82;20503;-67
2021/04/01 13:35:59;;;;;;;;;;;;;;;21.30;30.52;98896.70;1718238;83;20157;-69
2021/04/01 13:38:24;;;;;;;;;;;;;;;21.39;30.18;98896.33;1722257;83;20132;-68
2021/04/01 13:40:53;;;;;;;;;;;;;;;21.41;29.26;98899.06;1752183;81;20131;-69
2021/04/01 13:43:23;;;;;;;;;;;;;;;21.39;28.89;98899.83;1750764;81;20147;-69
2021/04/01 13:45:50;;;;;;;;;;;;;;;21.32;29.01;98898.63;1736920;81;20148;-67
2021/04/01 13:48:24;;;;;;;;;;;;;;;21.21;29.11;98896.78;1738691;82;20130;-68
2021/04/01 13:50:54;;;;;;;;;;;;;;;21.18;29.70;98889.72;1733244;82;20234;-68
2021/04/01 13:56:02;;;;;;;;;;;;;;;20.91;30.33;98881.63;1731943;81;20140;-68
2021/04/01 14:04:08;;;;;;;;;;;;;;;20.48;30.36;98874.70;1698651;82;20235;-69
2021/04/01 14:09:34;;;;;;;;;;;;;;;20.04;30.36;98870.65;1739235;81;20147;-70
2021/04/01 14:12:05;;;;;;;;;;;;;;;19.79;30.76;98868.94;1725986;83;20188;-69
2021/04/01 14:14:34;;;;;;;;;;;;;;;19.67;31.68;98866.16;1745298;81;20165;-68
2021/04/01 14:17:04;;;;;;;;;;;;;;;19.63;32.12;98856.13;1728162;80;20480;-69
2021/04/01 14:19:32;;;;;;;;;;;;;;;19.59;32.40;98861.94;1748914;81;20187;-68
2021/04/01 14:22:01;;;;;;;;;;;;;;;19.53;32.37;98849.98;1738935;82;20417;-68
2021/04/01 14:27:24;;;;;;;;;;;;;;;19.48;32.87;98852.51;1721839;82;20435;-68
2021/04/01 14:29:41;;;;;;;;;;;;;;;19.50;32.91;98847.73;1715945;83;20248;-67
2021/04/01 14:32:10;;;;;;;;;;;;;;;19.52;33.12;98839.75;1722551;82;20130;-69
2021/04/01 14:34:39;;;;;;;;;;;;;;;19.47;33.62;98842.31;1745290;81;20241;-69
2021/04/01 14:37:08;;;;;;;;;;;;;;;19.36;33.86;98841.20;1734858;81;20136;-69
2021/04/01 14:39:36;;;;;;;;;;;;;;;19.30;34.00;98841.28;1746757;82;20409;-69
2021/04/01 14:42:07;;;;;;;;;;;;;;;19.24;34.01;98838.17;1695391;81;20133;-68
2021/04/01 14:44:34;;;;;;;;;;;;;;;19.18;34.02;98837.20;1716282;82;20126;-68